Time;durP1;ratioP1;P1;durP2;ratioP2;P2;SDS_P1;SDS_P2;PMS_P1;PMS_P2;Temp;Humidity;BMP_temperature;BMP_pressure;BME280_temperature;BME280_humidity;BME280_pressure;Samples;Min_cycle;Max_cycle;Signal;HPM_P1;HPM_P2
2022/12/31 00:01:27;;;;;;;6.38;1.50;;;11.60;99.90;;;;;;5006237;28;20633;-64
2022/12/31 00:03:53;;;;;;;5.90;2.33;;;11.60;99.90;;;;;;5006388;28;20467;-62
2022/12/31 00:06:21;;;;;;;6.60;2.55;;;11.70;99.90;;;;;;5005260;28;20077;-65
2022/12/31 00:08:48;;;;;;;9.00;2.97;;;11.90;99.90;;;;;;5006540;28;20053;-64
2022/12/31 00:11:14;;;;;;;4.03;2.05;;;11.90;99.90;;;;;;5006557;28;20124;-64
2022/12/31 00:13:40;;;;;;;7.55;2.53;;;11.80;99.90;;;;;;5004782;28;20050;-62
2022/12/31 00:16:18;;;;;;;7.45;2.72;;;11.70;99.90;;;;;;5004444;28;20030;-63
2022/12/31 00:18:46;;;;;;;7.90;2.67;;;12.00;99.90;;;;;;5006214;28;20429;-63
2022/12/31 00:21:12;;;;;;;7.75;2.58;;;11.90;99.90;;;;;;5004663;28;20053;-62
2022/12/31 00:23:39;;;;;;;5.20;2.28;;;12.00;99.90;;;;;;5005549;28;20072;-64
2022/12/31 00:26:10;;;;;;;3.47;2.15;;;11.70;99.90;;;;;;5005958;28;20144;-63
2022/12/31 00:28:37;;;;;;;5.45;2.25;;;11.80;99.90;;;;;;5006070;28;20184;-64
2022/12/31 00:31:09;;;;;;;7.10;2.65;;;12.00;99.90;;;;;;5005899;28;20042;-62
2022/12/31 00:33:35;;;;;;;8.88;3.08;;;12.00;99.90;;;;;;5005364;28;20053;-64
2022/12/31 00:36:22;;;;;;;8.43;3.40;;;11.90;99.90;;;;;;5005488;28;20038;-65
2022/12/31 00:38:50;;;;;;;6.05;2.90;;;11.80;99.90;;;;;;5006285;28;20522;-63
2022/12/31 00:41:17;;;;;;;7.10;2.95;;;11.90;99.90;;;;;;5005766;28;20060;-64
2022/12/31 00:43:43;;;;;;;4.50;2.20;;;11.80;99.90;;;;;;5005252;28;20437;-65
2022/12/31 00:46:10;;;;;;;6.22;2.65;;;11.90;99.90;;;;;;5005903;28;20073;-64
2022/12/31 00:48:36;;;;;;;5.78;2.42;;;11.50;99.90;;;;;;5005798;28;20064;-64
2022/12/31 00:51:04;;;;;;;3.90;2.20;;;11.60;99.90;;;;;;5004142;28;20046;-64
2022/12/31 00:53:30;;;;;;;6.28;2.90;;;11.50;99.90;;;;;;5005652;28;20576;-65
2022/12/31 00:56:00;;;;;;;6.47;2.97;;;11.40;99.90;;;;;;5005160;28;20038;-64
2022/12/31 00:58:27;;;;;;;5.80;3.20;;;11.80;99.90;;;;;;5005053;28;20389;-64
2022/12/31 01:00:52;;;;;;;3.97;2.40;;;11.30;99.90;;;;;;5005133;28;20116;-64
2022/12/31 01:03:18;;;;;;;4.82;3.20;;;11.70;99.90;;;;;;5005444;28;20049;-64
2022/12/31 01:05:44;;;;;;;5.65;3.30;;;11.20;99.90;;;;;;5004463;28;20177;-64
2022/12/31 01:08:09;;;;;;;5.90;3.47;;;11.30;99.90;;;;;;5004966;28;20053;-63
2022/12/31 01:13:19;;;;;;;4.30;3.67;;;11.50;99.90;;;;;;5005304;28;20081;-62
2022/12/31 01:15:45;;;;;;;7.53;4.00;;;11.10;99.90;;;;;;5003905;28;20539;-63
2022/12/31 01:18:10;;;;;;;6.53;4.10;;;11.00;99.90;;;;;;5005211;28;20358;-63
2022/12/31 01:20:38;;;;;;;5.53;3.88;;;11.20;99.90;;;;;;5001579;28;20496;-64
2022/12/31 01:23:05;;;;;;;6.85;4.68;;;11.20;99.90;;;;;;5005392;28;20060;-62
2022/12/31 01:25:34;;;;;;;6.65;4.15;;;11.10;99.90;;;;;;5005600;28;20050;-64
2022/12/31 01:28:00;;;;;;;5.65;3.55;;;11.00;99.90;;;;;;5003878;28;20049;-63
2022/12/31 01:30:25;;;;;;;6.60;4.70;;;11.50;99.90;;;;;;5004608;28;20041;-64
2022/12/31 01:32:51;;;;;;;6.38;4.03;;;11.20;99.90;;;;;;5005532;28;20034;-60
2022/12/31 01:35:17;;;;;;;5.82;4.10;;;11.00;99.90;;;;;;5004451;28;20136;-64
2022/12/31 01:37:43;;;;;;;6.47;4.28;;;11.70;99.90;;;;;;5005035;28;20086;-63
2022/12/31 01:40:09;;;;;;;5.70;4.10;;;11.80;99.90;;;;;;5005274;28;20050;-64
2022/12/31 01:42:34;;;;;;;7.47;4.82;;;11.60;99.90;;;;;;5005167;28;20049;-62
2022/12/31 01:45:00;;;;;;;6.68;4.63;;;11.70;99.90;;;;;;5005243;28;20050;-63
2022/12/31 01:47:40;;;;;;;7.45;4.47;;;11.40;99.90;;;;;;5008163;28;20054;-63
2022/12/31 01:50:12;;;;;;;8.50;4.93;;;11.30;99.90;;;;;;5007928;28;20057;-64
2022/12/31 01:52:43;;;;;;;8.50;4.85;;;11.80;99.90;;;;;;5008119;28;20053;-62
2022/12/31 01:55:17;;;;;;;7.30;4.28;;;11.60;99.90;;;;;;5008546;28;20053;-63
2022/12/31 01:57:46;;;;;;;8.07;4.45;;;11.20;99.90;;;;;;5008769;28;20060;-64
2022/12/31 02:00:13;;;;;;;6.97;4.88;;;11.40;99.90;;;;;;5008313;28;20050;-64
2022/12/31 02:02:38;;;;;;;7.90;3.97;;;11.80;99.90;;;;;;5008694;28;20049;-63
2022/12/31 02:05:17;;;;;;;9.05;4.63;;;11.60;99.90;;;;;;5007810;28;20473;-63
2022/12/31 02:07:44;;;;;;;11.07;4.68;;;11.80;99.90;;;;;;5008308;28;20695;-64
2022/12/31 02:10:10;;;;;;;8.02;4.43;;;11.70;99.90;;;;;;5008059;28;20045;-63
2022/12/31 02:12:35;;;;;;;7.40;4.30;;;11.70;99.90;;;;;;5008172;28;20129;-63
2022/12/31 02:15:01;;;;;;;5.88;3.72;;;11.40;99.90;;;;;;5007454;28;20046;-62
2022/12/31 02:17:35;;;;;;;7.38;4.50;;;11.30;99.90;;;;;;5008232;28;20111;-64
2022/12/31 02:20:16;;;;;;;6.43;4.07;;;11.80;99.90;;;;;;5006842;28;20042;-63
2022/12/31 02:22:59;;;;;;;6.97;4.47;;;11.60;99.90;;;;;;5007705;28;20046;-63
2022/12/31 02:26:10;;;;;;;9.15;4.30;;;11.20;99.90;;;;;;5007959;28;20042;-63
2022/12/31 02:29:00;;;;;;;8.65;3.88;;;11.70;99.90;;;;;;4992397;28;20089;-63
2022/12/31 02:31:46;;;;;;;8.55;4.32;;;11.70;99.90;;;;;;5008466;28;20042;-63
2022/12/31 02:34:18;;;;;;;7.25;4.50;;;11.70;99.90;;;;;;5006848;28;21038;-64
2022/12/31 02:36:46;;;;;;;8.55;4.25;;;11.70;99.90;;;;;;5007760;28;20115;-63
2022/12/31 02:39:13;;;;;;;6.80;3.60;;;11.10;99.90;;;;;;5007337;28;20115;-63
2022/12/31 02:41:51;;;;;;;7.25;2.63;;;11.20;99.90;;;;;;5007773;28;20054;-62
2022/12/31 02:44:24;;;;;;;7.38;3.80;;;11.80;99.90;;;;;;5007830;28;20049;-63
2022/12/31 02:46:55;;;;;;;9.07;4.40;;;11.70;99.90;;;;;;5007406;28;20076;-62
2022/12/31 02:49:41;;;;;;;8.70;4.53;;;11.40;99.90;;;;;;5006292;28;20184;-63
2022/12/31 02:52:30;;;;;;;7.50;3.97;;;11.10;99.90;;;;;;4965430;28;20054;-63
2022/12/31 02:55:05;;;;;;;7.35;4.88;;;11.60;99.90;;;;;;5007334;28;20069;-62
2022/12/31 02:57:45;;;;;;;9.88;4.78;;;11.20;99.90;;;;;;5007000;28;20092;-63
2022/12/31 03:03:00;;;;;;;4.63;2.92;;;11.00;99.90;;;;;;5007813;28;20053;-63
2022/12/31 03:05:28;;;;;;;5.13;3.58;;;11.20;99.90;;;;;;5006716;28;20058;-62
2022/12/31 03:07:54;;;;;;;7.20;3.72;;;11.00;99.90;;;;;;5006854;28;20054;-62
2022/12/31 03:10:20;;;;;;;5.65;3.40;;;11.40;99.90;;;;;;5006694;28;20046;-63
2022/12/31 03:12:47;;;;;;;6.25;3.45;;;11.20;99.90;;;;;;5006639;28;20127;-64
2022/12/31 03:15:26;;;;;;;8.25;3.60;;;11.60;99.90;;;;;;5006800;28;20057;-63
2022/12/31 03:22:26;;;;;;;9.10;3.42;;;11.10;99.90;;;;;;5007220;28;20045;-62
2022/12/31 03:26:40;;;;;;;6.73;2.90;;;11.20;99.90;;;;;;5006986;28;20054;-62
2022/12/31 03:29:05;;;;;;;5.05;2.72;;;11.00;99.90;;;;;;5005214;28;20277;-63
2022/12/31 03:31:31;;;;;;;8.13;2.17;;;11.40;99.90;;;;;;5006803;28;20132;-62
2022/12/31 03:33:57;;;;;;;6.50;2.22;;;11.40;99.90;;;;;;5006756;28;20477;-63
2022/12/31 03:36:22;;;;;;;5.28;2.00;;;11.40;99.90;;;;;;5006868;28;20038;-62
2022/12/31 03:38:48;;;;;;;4.88;1.90;;;10.80;99.90;;;;;;5006761;28;20100;-63
2022/12/31 03:41:14;;;;;;;4.93;1.95;;;10.80;99.90;;;;;;5006816;28;20042;-63
2022/12/31 03:43:39;;;;;;;5.07;2.03;;;10.70;99.90;;;;;;5006594;28;20045;-63
2022/12/31 03:46:05;;;;;;;3.42;1.50;;;10.80;99.90;;;;;;5006074;28;20038;-63
2022/12/31 03:48:30;;;;;;;5.55;1.60;;;10.90;99.90;;;;;;5007196;28;20128;-62
2022/12/31 03:50:56;;;;;;;5.60;1.70;;;10.70;99.90;;;;;;5006207;28;20108;-62
2022/12/31 03:53:22;;;;;;;5.40;1.73;;;11.20;99.90;;;;;;5006612;28;20037;-62
2022/12/31 03:55:54;;;;;;;4.60;1.40;;;10.80;99.90;;;;;;5005648;28;20064;-64
2022/12/31 03:58:20;;;;;;;4.38;1.58;;;10.90;99.90;;;;;;5006120;28;20124;-63
2022/12/31 04:00:46;;;;;;;3.22;1.30;;;11.20;99.90;;;;;;5005543;28;20058;-63
2022/12/31 04:03:12;;;;;;;4.50;1.30;;;11.10;99.90;;;;;;5005200;28;20038;-63
2022/12/31 04:05:37;;;;;;;4.85;1.55;;;11.20;99.90;;;;;;5005193;28;20050;-62
2022/12/31 04:08:03;;;;;;;4.32;1.52;;;10.80;99.90;;;;;;5005915;28;20049;-64
2022/12/31 04:10:29;;;;;;;3.67;1.48;;;10.70;99.90;;;;;;5006174;28;20073;-63
2022/12/31 04:12:55;;;;;;;2.60;1.10;;;11.10;99.90;;;;;;5005861;28;20049;-63
2022/12/31 04:15:20;;;;;;;1.77;0.82;;;10.70;99.90;;;;;;5006062;28;20045;-63
2022/12/31 04:17:47;;;;;;;2.28;0.85;;;10.70;99.90;;;;;;5005581;28;20041;-62
2022/12/31 04:20:13;;;;;;;5.45;1.50;;;10.70;99.90;;;;;;5003836;28;20429;-63
2022/12/31 04:22:39;;;;;;;3.25;1.00;;;10.80;99.90;;;;;;5005083;28;20400;-63
2022/12/31 04:25:10;;;;;;;2.38;0.60;;;11.10;99.90;;;;;;5005106;28;20125;-63
2022/12/31 04:27:39;;;;;;;3.90;0.82;;;10.60;99.90;;;;;;5004910;28;20048;-64
2022/12/31 04:30:06;;;;;;;1.65;0.52;;;11.00;99.90;;;;;;5003684;28;20085;-63
2022/12/31 04:32:31;;;;;;;3.45;1.00;;;10.80;99.90;;;;;;5005699;28;20192;-63
2022/12/31 04:34:57;;;;;;;1.13;0.68;;;11.00;99.90;;;;;;5002692;28;20049;-62
2022/12/31 04:37:23;;;;;;;3.15;0.80;;;10.90;99.90;;;;;;5005313;28;20550;-63
2022/12/31 04:39:48;;;;;;;2.85;1.00;;;10.70;99.90;;;;;;5004964;28;20477;-63
2022/12/31 04:42:14;;;;;;;4.20;1.10;;;10.40;99.90;;;;;;5005504;28;20042;-62
2022/12/31 04:44:39;;;;;;;4.65;1.35;;;10.40;99.90;;;;;;5005451;28;20049;-62
2022/12/31 04:47:05;;;;;;;3.03;1.52;;;10.90;99.90;;;;;;5006165;28;20069;-63
2022/12/31 04:49:31;;;;;;;4.00;1.60;;;10.70;99.90;;;;;;5005619;28;20066;-63
2022/12/31 04:51:56;;;;;;;3.15;1.48;;;10.70;99.90;;;;;;5005282;28;20042;-62
2022/12/31 04:54:22;;;;;;;3.88;1.70;;;10.50;99.90;;;;;;5005871;28;20132;-63
2022/12/31 04:56:48;;;;;;;4.03;1.90;;;10.70;99.90;;;;;;5005668;28;20073;-63
2022/12/31 04:59:13;;;;;;;4.38;1.50;;;10.60;99.90;;;;;;5005645;28;20073;-61
2022/12/31 05:01:39;;;;;;;3.58;1.30;;;10.90;99.90;;;;;;5005011;28;20476;-63
2022/12/31 05:04:05;;;;;;;3.60;1.60;;;10.90;99.90;;;;;;5005529;28;20064;-60
2022/12/31 05:06:31;;;;;;;3.78;1.60;;;10.30;99.90;;;;;;5004348;28;20621;-62
2022/12/31 05:08:56;;;;;;;4.18;1.63;;;10.40;99.90;;;;;;5004836;28;20048;-63
2022/12/31 05:11:22;;;;;;;3.28;1.67;;;10.40;99.90;;;;;;5005555;28;20527;-62
2022/12/31 05:13:47;;;;;;;6.00;2.25;;;10.90;99.90;;;;;;5004033;28;20046;-62
2022/12/31 05:16:13;;;;;;;5.55;2.00;;;10.70;99.90;;;;;;5005456;28;20417;-62
2022/12/31 05:18:39;;;;;;;7.57;2.90;;;10.40;99.90;;;;;;5003001;28;20042;-63
2022/12/31 05:21:05;;;;;;;7.32;2.75;;;10.50;99.90;;;;;;5008373;28;20050;-63
2022/12/31 05:23:31;;;;;;;5.47;2.47;;;10.50;99.90;;;;;;5009437;28;20042;-62
2022/12/31 05:25:58;;;;;;;6.53;2.75;;;10.60;99.90;;;;;;5008995;28;20107;-64
2022/12/31 05:28:24;;;;;;;4.68;2.20;;;10.90;99.90;;;;;;5009206;28;20523;-63
2022/12/31 05:30:50;;;;;;;5.50;2.40;;;10.90;99.90;;;;;;5009345;28;20184;-62
2022/12/31 05:33:17;;;;;;;5.05;2.28;;;10.30;99.90;;;;;;5008190;28;20038;-63
2022/12/31 05:35:42;;;;;;;4.03;2.20;;;10.40;99.90;;;;;;5008558;28;20461;-61
2022/12/31 05:38:08;;;;;;;4.90;2.63;;;10.50;99.90;;;;;;5009315;28;20089;-63
2022/12/31 05:40:34;;;;;;;4.28;2.40;;;10.90;99.90;;;;;;5009121;28;20235;-63
2022/12/31 05:42:59;;;;;;;4.93;2.65;;;10.40;99.90;;;;;;5008117;28;20172;-62
2022/12/31 05:45:25;;;;;;;4.38;1.80;;;10.90;99.90;;;;;;5008978;28;20046;-62
2022/12/31 05:47:51;;;;;;;4.95;2.20;;;10.40;99.90;;;;;;5008919;28;20504;-63
2022/12/31 05:50:17;;;;;;;3.67;2.22;;;10.40;99.90;;;;;;5007569;28;20693;-63
2022/12/31 05:52:44;;;;;;;5.45;1.60;;;10.90;99.90;;;;;;5008824;28;20081;-63
2022/12/31 05:55:12;;;;;;;4.75;1.92;;;10.40;99.90;;;;;;5008244;28;20042;-63
2022/12/31 05:57:39;;;;;;;5.40;2.10;;;11.00;99.90;;;;;;5008350;28;20038;-62
2022/12/31 06:00:06;;;;;;;6.78;2.42;;;10.40;99.90;;;;;;5008995;28;20468;-63
2022/12/31 06:02:32;;;;;;;5.20;2.15;;;10.50;99.90;;;;;;5008648;28;20057;-63
2022/12/31 06:04:58;;;;;;;4.53;2.10;;;10.50;99.90;;;;;;5007775;28;20656;-63
2022/12/31 06:07:23;;;;;;;4.45;1.83;;;10.60;99.90;;;;;;5008117;28;20053;-63
2022/12/31 06:09:49;;;;;;;4.18;2.08;;;10.90;99.90;;;;;;5008161;28;20081;-63
2022/12/31 06:12:14;;;;;;;5.75;2.25;;;10.40;99.90;;;;;;5008754;28;20118;-63
2022/12/31 06:14:40;;;;;;;5.10;2.03;;;10.50;99.90;;;;;;5007735;28;20046;-63
2022/12/31 06:17:06;;;;;;;4.07;1.85;;;10.40;99.90;;;;;;5008550;28;20485;-63
2022/12/31 06:19:32;;;;;;;3.63;2.13;;;10.40;99.90;;;;;;5007366;28;20535;-63
2022/12/31 06:21:57;;;;;;;9.13;2.38;;;10.70;99.90;;;;;;5007511;28;20044;-64
2022/12/31 06:24:23;;;;;;;5.22;2.55;;;10.40;99.90;;;;;;5007627;28;20042;-63
2022/12/31 06:26:49;;;;;;;6.22;2.65;;;10.90;99.90;;;;;;5008149;28;20054;-63
2022/12/31 06:29:14;;;;;;;5.57;2.90;;;10.90;99.90;;;;;;5008380;28;20042;-62
2022/12/31 06:31:40;;;;;;;5.75;3.00;;;10.40;99.90;;;;;;5007032;28;20092;-63
2022/12/31 06:34:06;;;;;;;4.78;2.65;;;10.40;99.90;;;;;;5007607;28;20441;-63
2022/12/31 06:36:32;;;;;;;7.38;3.15;;;10.30;99.90;;;;;;5007846;28;20169;-63
2022/12/31 06:38:58;;;;;;;5.80;2.78;;;10.80;99.90;;;;;;5007277;28;20130;-62
2022/12/31 06:41:23;;;;;;;4.55;2.63;;;10.80;99.90;;;;;;5007212;28;20128;-64
2022/12/31 06:43:49;;;;;;;3.42;2.10;;;10.80;99.90;;;;;;5007505;28;20162;-63
2022/12/31 06:46:16;;;;;;;5.95;3.08;;;10.40;99.90;;;;;;5007764;28;20077;-63
2022/12/31 06:48:43;;;;;;;6.82;3.00;;;10.70;99.90;;;;;;5006332;28;20038;-62
2022/12/31 06:51:17;;;;;;;5.07;3.35;;;10.80;99.90;;;;;;5007563;28;20053;-63
2022/12/31 06:53:44;;;;;;;4.43;2.85;;;10.70;99.90;;;;;;5007229;28;20092;-63
2022/12/31 06:56:13;;;;;;;5.75;3.58;;;10.80;99.90;;;;;;5007254;28;20045;-63
2022/12/31 06:58:39;;;;;;;5.35;3.17;;;10.50;99.90;;;;;;5006560;28;20061;-63
2022/12/31 07:02:02;;;;;;;4.50;3.25;;;10.80;99.90;;;;;;5007333;28;20050;-63
2022/12/31 07:04:36;;;;;;;5.30;3.55;;;10.40;99.90;;;;;;4945461;29;20466;-63
2022/12/31 07:07:02;;;;;;;5.30;3.40;;;10.40;99.90;;;;;;4945831;29;20069;-61
2022/12/31 07:09:58;;;;;;;7.57;4.30;;;10.50;99.90;;;;;;4977787;28;20053;-63
2022/12/31 07:12:42;;;;;;;5.93;3.72;;;10.30;99.90;;;;;;5007247;28;20045;-63
2022/12/31 07:15:19;;;;;;;3.70;2.23;;;10.80;99.90;;;;;;5007385;28;20492;-62
2022/12/31 07:18:14;;;;;;;4.90;3.20;;;10.30;99.90;;;;;;5007058;28;20292;-63
2022/12/31 07:20:40;;;;;;;4.13;2.67;;;10.40;99.90;;;;;;5005250;28;20101;-63
2022/12/31 07:23:07;;;;;;;2.10;1.17;;;10.60;99.90;;;;;;5006696;28;20042;-63
2022/12/31 07:25:35;;;;;;;4.80;0.90;;;10.20;99.90;;;;;;5007074;28;20040;-63
2022/12/31 07:28:14;;;;;;;3.33;1.50;;;10.30;99.90;;;;;;5006357;28;20052;-63
2022/12/31 07:31:06;;;;;;;4.20;1.98;;;10.20;99.90;;;;;;5007090;28;20077;-64
2022/12/31 07:33:57;;;;;;;2.35;1.40;;;10.10;99.90;;;;;;4998935;28;20054;-64
2022/12/31 07:36:32;;;;;;;2.92;1.40;;;10.60;99.90;;;;;;5006728;28;20041;-64
2022/12/31 07:39:15;;;;;;;3.25;1.70;;;10.10;99.90;;;;;;5006970;28;20038;-63
2022/12/31 07:42:10;;;;;;;3.80;1.90;;;10.60;99.90;;;;;;5005341;28;20138;-63
2022/12/31 07:44:59;;;;;;;3.42;1.80;;;10.30;99.90;;;;;;5006248;28;20057;-63
2022/12/31 07:47:27;;;;;;;4.05;2.00;;;10.60;99.90;;;;;;5006879;28;20130;-63
2022/12/31 07:49:53;;;;;;;5.13;2.05;;;10.60;99.90;;;;;;5006213;28;20067;-63
2022/12/31 07:52:19;;;;;;;3.90;2.00;;;10.50;99.90;;;;;;5005926;28;20524;-63
2022/12/31 07:54:46;;;;;;;3.35;2.33;;;10.40;99.90;;;;;;5006469;28;20046;-63
2022/12/31 07:57:14;;;;;;;3.78;2.22;;;10.40;99.90;;;;;;5006458;28;20056;-64
2022/12/31 08:00:09;;;;;;;3.88;2.17;;;10.30;99.90;;;;;;5006333;28;20084;-64
2022/12/31 08:02:40;;;;;;;2.45;1.80;;;10.20;99.90;;;;;;5005595;28;20497;-63
2022/12/31 08:05:24;;;;;;;3.33;2.38;;;10.20;99.90;;;;;;5005033;28;20129;-64
2022/12/31 08:07:57;;;;;;;4.17;2.30;;;10.40;99.90;;;;;;5006112;28;20065;-61
2022/12/31 08:10:51;;;;;;;3.20;2.28;;;10.50;99.90;;;;;;5004645;28;20062;-64
2022/12/31 08:13:17;;;;;;;5.35;2.53;;;10.60;99.90;;;;;;5005191;28;20108;-63
2022/12/31 08:15:43;;;;;;;4.57;2.45;;;10.10;99.90;;;;;;5005898;28;20481;-63
2022/12/31 08:18:09;;;;;;;3.85;2.65;;;10.30;99.90;;;;;;5005143;28;20069;-64
2022/12/31 08:21:20;;;;;;;4.82;2.75;;;10.50;99.90;;;;;;5004804;28;20045;-64
2022/12/31 08:24:10;;;;;;;4.88;2.85;;;10.30;99.90;;;;;;4963835;28;20146;-63
2022/12/31 08:26:57;;;;;;;4.97;3.40;;;10.10;99.90;;;;;;4986758;28;20610;-63
2022/12/31 08:29:42;;;;;;;5.95;3.95;;;10.10;99.90;;;;;;4985558;28;20050;-64
2022/12/31 08:32:15;;;;;;;4.93;4.07;;;10.10;99.90;;;;;;4986477;28;20046;-64
2022/12/31 08:35:23;;;;;;;5.65;4.13;;;10.00;99.90;;;;;;4985817;28;20405;-63
2022/12/31 08:38:06;;;;;;;6.00;3.38;;;10.60;99.90;;;;;;4984909;28;20097;-63
2022/12/31 08:41:07;;;;;;;5.55;4.40;;;10.40;99.90;;;;;;4984923;28;20046;-63
2022/12/31 08:43:56;;;;;;;4.72;3.47;;;10.60;99.90;;;;;;4986063;28;20054;-63
2022/12/31 08:46:30;;;;;;;6.95;4.25;;;10.30;99.90;;;;;;4986258;28;20051;-64
2022/12/31 08:48:56;;;;;;;4.50;3.33;;;10.50;99.90;;;;;;4984399;28;20613;-63
2022/12/31 08:51:23;;;;;;;4.28;3.05;;;10.30;99.90;;;;;;4984803;28;20389;-64
2022/12/31 08:53:50;;;;;;;3.92;2.42;;;10.40;99.90;;;;;;4984542;28;20397;-62
2022/12/31 08:56:30;;;;;;;3.58;2.40;;;10.60;99.90;;;;;;4989078;28;20076;-63
2022/12/31 08:59:03;;;;;;;2.97;1.83;;;10.40;99.90;;;;;;4990158;28;20046;-63
2022/12/31 09:01:56;;;;;;;3.10;2.08;;;10.80;99.90;;;;;;4992303;28;20033;-63
2022/12/31 09:04:39;;;;;;;3.38;1.77;;;10.60;99.90;;;;;;4994722;28;20069;-63
2022/12/31 09:07:06;;;;;;;2.97;1.92;;;11.00;99.90;;;;;;5000728;28;20441;-64
2022/12/31 09:09:37;;;;;;;3.88;2.65;;;11.10;99.90;;;;;;4997880;28;20386;-63
2022/12/31 09:12:21;;;;;;;6.25;3.60;;;11.00;99.90;;;;;;4997579;28;20048;-64
2022/12/31 09:14:49;;;;;;;2.90;1.70;;;11.10;99.90;;;;;;5005669;28;20053;-63
2022/12/31 09:17:24;;;;;;;3.83;2.63;;;10.80;99.90;;;;;;4994523;28;20038;-62
2022/12/31 09:19:49;;;;;;;;;;;11.30;99.90;;;;;;4987598;28;20050;-62
2022/12/31 09:22:15;;;;;;;6.57;4.43;;;11.30;99.90;;;;;;5009195;28;20008;-64
2022/12/31 09:24:41;;;;;;;3.88;2.70;;;11.30;99.90;;;;;;5008634;28;20557;-64
2022/12/31 09:27:21;;;;;;;4.05;3.50;;;11.20;99.90;;;;;;5008921;28;20115;-63
2022/12/31 09:29:47;;;;;;;9.15;5.38;;;11.20;99.90;;;;;;5009076;28;20053;-63
2022/12/31 09:32:34;;;;;;;7.45;5.20;;;11.10;99.90;;;;;;5007609;28;20056;-64
2022/12/31 09:35:13;;;;;;;2.90;1.50;;;11.50;99.90;;;;;;5006899;28;20053;-63
2022/12/31 09:37:59;;;;;;;5.70;3.47;;;11.60;99.90;;;;;;5008949;28;20037;-64
2022/12/31 09:40:27;;;;;;;4.18;2.38;;;11.80;99.90;;;;;;5008858;28;20046;-63
2022/12/31 09:43:12;;;;;;;4.63;2.92;;;11.90;99.90;;;;;;5007162;28;20045;-64
2022/12/31 09:46:12;;;;;;;3.58;2.55;;;12.00;99.90;;;;;;5007511;28;20616;-63
2022/12/31 09:48:57;;;;;;;2.40;1.40;;;11.80;99.90;;;;;;5007637;28;20108;-63
2022/12/31 09:51:25;;;;;;;2.63;1.38;;;11.90;99.90;;;;;;5007803;28;20120;-64
2022/12/31 09:54:21;;;;;;;3.47;1.95;;;12.40;99.90;;;;;;5008395;28;20183;-62
2022/12/31 09:57:05;;;;;;;3.28;1.60;;;12.40;99.90;;;;;;5007326;28;20054;-64
2022/12/31 09:59:55;;;;;;;2.30;1.20;;;12.50;99.90;;;;;;5008091;28;20046;-64
2022/12/31 10:02:58;;;;;;;2.15;1.35;;;12.10;99.90;;;;;;5007891;28;20060;-64
2022/12/31 10:06:00;;;;;;;1.90;1.25;;;12.00;99.90;;;;;;4974187;28;20046;-64
2022/12/31 10:08:35;;;;;;;2.03;0.95;;;12.00;99.90;;;;;;4969363;28;20090;-63
2022/12/31 10:11:50;;;;;;;2.10;1.20;;;12.50;99.90;;;;;;4968702;28;20046;-64
2022/12/31 10:15:00;;;;;;;1.58;0.90;;;12.20;99.90;;;;;;4968392;28;20058;-63
2022/12/31 10:17:50;;;;;;;4.25;0.70;;;12.50;99.90;;;;;;4967657;28;20050;-64
2022/12/31 10:20:15;;;;;;;2.53;0.88;;;12.50;99.90;;;;;;4968079;28;20069;-64
2022/12/31 10:22:56;;;;;;;2.50;1.15;;;12.90;99.90;;;;;;4968082;28;20494;-64
2022/12/31 10:25:47;;;;;;;3.90;0.55;;;13.00;99.90;;;;;;4965250;28;20047;-63
2022/12/31 10:28:46;;;;;;;1.77;0.57;;;12.80;99.90;;;;;;4967036;28;20494;-64
2022/12/31 10:31:13;;;;;;;1.30;0.60;;;13.30;99.90;;;;;;4967217;28;20493;-64
2022/12/31 10:33:50;;;;;;;2.05;0.88;;;12.90;99.90;;;;;;4965493;28;20043;-61
2022/12/31 10:36:19;;;;;;;1.77;0.57;;;13.20;99.90;;;;;;4967434;28;20421;-62
2022/12/31 10:39:07;;;;;;;1.00;0.60;;;13.10;99.90;;;;;;4965998;28;20057;-63
2022/12/31 10:42:05;;;;;;;4.28;0.68;;;13.20;99.90;;;;;;4967085;28;20055;-66
2022/12/31 10:44:36;;;;;;;3.90;0.95;;;13.00;99.90;;;;;;4964265;28;20114;-64
2022/12/31 10:47:27;;;;;;;2.13;0.65;;;13.10;99.90;;;;;;4966528;28;20078;-64
2022/12/31 10:50:07;;;;;;;1.85;0.80;;;13.10;99.90;;;;;;4965433;28;20047;-64
2022/12/31 10:52:59;;;;;;;1.67;0.85;;;13.10;99.90;;;;;;4966321;28;20097;-62
2022/12/31 10:55:40;;;;;;;2.28;0.73;;;13.10;99.90;;;;;;4966286;28;20043;-64
2022/12/31 10:58:13;;;;;;;4.00;0.65;;;13.10;99.90;;;;;;4965955;28;20055;-64
2022/12/31 11:01:16;;;;;;;2.92;0.70;;;13.20;99.90;;;;;;4962129;28;20157;-63
2022/12/31 11:04:24;;;;;;;2.35;0.70;;;13.20;99.90;;;;;;4965104;28;20065;-59
2022/12/31 11:07:24;;;;;;;3.95;1.13;;;13.30;99.90;;;;;;4986546;28;20054;-62
2022/12/31 11:10:09;;;;;;;1.60;0.60;;;13.30;99.90;;;;;;4971597;28;20052;-64
2022/12/31 11:13:11;;;;;;;2.30;0.70;;;13.40;99.90;;;;;;5005545;28;20052;-62
2022/12/31 11:16:09;;;;;;;4.82;1.10;;;13.40;99.90;;;;;;5005991;28;20048;-64
2022/12/31 11:19:01;;;;;;;3.95;0.77;;;13.50;99.90;;;;;;5003858;28;20056;-64
2022/12/31 11:21:27;;;;;;;3.67;0.80;;;13.40;99.90;;;;;;5003983;28;20115;-64
2022/12/31 11:24:13;;;;;;;1.75;0.70;;;13.50;99.90;;;;;;5004218;28;20038;-64
2022/12/31 11:27:09;;;;;;;2.75;1.10;;;13.60;99.90;;;;;;5003961;28;20495;-62
2022/12/31 11:29:47;;;;;;;2.97;1.20;;;13.30;99.90;;;;;;5002120;28;20053;-62
2022/12/31 11:32:35;;;;;;;5.05;0.77;;;13.50;99.90;;;;;;5004317;28;20132;-64
2022/12/31 11:35:13;;;;;;;3.55;1.25;;;13.60;99.90;;;;;;5004909;28;20389;-62
2022/12/31 11:37:53;;;;;;;4.82;1.30;;;13.70;99.90;;;;;;5019690;28;20222;-63
2022/12/31 11:40:34;;;;;;;7.15;2.72;;;13.60;99.90;;;;;;5004958;28;20050;-63
2022/12/31 11:43:03;;;;;;;4.15;0.80;;;13.70;99.90;;;;;;5004641;28;20096;-63
2022/12/31 11:45:35;;;;;;;2.60;1.00;;;13.60;99.90;;;;;;5004774;28;20129;-64
2022/12/31 11:48:21;;;;;;;3.78;1.10;;;13.60;99.90;;;;;;5004344;28;20576;-65
2022/12/31 11:51:05;;;;;;;2.65;1.02;;;13.80;99.90;;;;;;5004207;28;20046;-64
2022/12/31 11:53:56;;;;;;;2.40;1.00;;;13.30;99.90;;;;;;5004793;28;20057;-64
2022/12/31 11:56:30;;;;;;;4.63;1.48;;;13.40;99.90;;;;;;5004983;28;20343;-63
2022/12/31 11:58:56;;;;;;;4.75;1.67;;;13.60;99.90;;;;;;5004999;28;20095;-64
2022/12/31 12:01:35;;;;;;;5.45;1.45;;;13.10;99.90;;;;;;5004473;28;20050;-63
2022/12/31 12:04:00;;;;;;;5.50;1.58;;;13.50;99.90;;;;;;5003946;28;20043;-64
2022/12/31 12:06:30;;;;;;;5.32;1.40;;;13.40;99.90;;;;;;5005051;28;20489;-64
2022/12/31 12:09:05;;;;;;;8.63;1.98;;;13.40;99.90;;;;;;5005062;28;20058;-65
2022/12/31 12:11:36;;;;;;;2.15;1.02;;;13.60;99.90;;;;;;5005113;28;20041;-65
2022/12/31 12:14:26;;;;;;;4.80;1.40;;;13.30;99.90;;;;;;5004791;28;20124;-63
2022/12/31 12:16:56;;;;;;;2.92;0.90;;;13.20;99.90;;;;;;5004451;28;20069;-64
2022/12/31 12:19:27;;;;;;;3.30;1.20;;;13.20;99.90;;;;;;5002970;28;20049;-64
2022/12/31 12:21:52;;;;;;;2.65;1.48;;;13.30;99.90;;;;;;5004117;28;20440;-64
2022/12/31 12:24:29;;;;;;;3.67;1.00;;;13.60;99.90;;;;;;5004607;28;20049;-64
2022/12/31 12:26:56;;;;;;;6.57;3.97;;;13.20;99.90;;;;;;5003714;28;20562;-64
2022/12/31 12:29:35;;;;;;;12.23;9.18;;;13.00;99.90;;;;;;5003984;28;20144;-63
2022/12/31 12:32:19;;;;;;;7.43;5.18;;;12.90;99.90;;;;;;5004993;28;20038;-63
2022/12/31 12:34:45;;;;;;;5.57;4.80;;;13.40;99.90;;;;;;5001942;28;20052;-63
2022/12/31 12:37:23;;;;;;;3.45;1.80;;;13.50;99.90;;;;;;5004651;28;20050;-63
2022/12/31 12:40:20;;;;;;;3.95;2.03;;;13.40;99.90;;;;;;5003094;28;20568;-64
2022/12/31 12:42:47;;;;;;;2.50;1.10;;;13.10;99.90;;;;;;5000017;28;20085;-64
2022/12/31 12:45:22;;;;;;;3.22;2.10;;;13.40;99.90;;;;;;5005146;28;20073;-64
2022/12/31 12:47:49;;;;;;;;;;;13.40;99.90;;;;;;5002952;28;20967;-63
2022/12/31 12:50:18;;;;;;;2.63;1.90;;;12.80;99.90;;;;;;5003581;28;19929;-64
2022/12/31 12:52:55;;;;;;;3.20;1.83;;;13.40;99.90;;;;;;5004631;28;20108;-62
2022/12/31 12:55:40;;;;;;;5.18;2.20;;;13.10;99.90;;;;;;5016071;28;20140;-62
2022/12/31 12:58:47;;;;;;;5.57;2.70;;;13.50;99.90;;;;;;5007200;28;20128;-64
2022/12/31 13:01:22;;;;;;;5.10;2.65;;;13.50;99.90;;;;;;4983961;28;20454;-64
2022/12/31 13:04:12;;;;;;;7.75;2.75;;;13.50;99.90;;;;;;5020850;28;20045;-65
2022/12/31 13:07:12;;;;;;;5.70;2.20;;;13.10;99.90;;;;;;5023364;28;20452;-64
2022/12/31 13:10:44;;;;;;;6.20;2.97;;;13.10;99.90;;;;;;5023072;28;20214;-65
2022/12/31 13:13:27;;;;;;;8.25;3.67;;;13.30;99.90;;;;;;4945808;28;20094;-65
2022/12/31 13:16:03;;;;;;;8.00;4.38;;;13.50;99.90;;;;;;4962510;28;20059;-63
2022/12/31 13:18:47;;;;;;;9.02;4.57;;;13.40;99.90;;;;;;4997150;28;20374;-64
2022/12/31 13:21:41;;;;;;;8.27;3.78;;;13.30;99.90;;;;;;5002823;28;20109;-64
2022/12/31 13:24:23;;;;;;;5.25;2.00;;;13.70;99.90;;;;;;5004190;28;20850;-64
2022/12/31 13:27:01;;;;;;;9.32;2.47;;;13.70;99.90;;;;;;5003429;28;20057;-64
2022/12/31 13:29:30;;;;;;;8.95;3.40;;;13.70;99.90;;;;;;5022972;28;20049;-64
2022/12/31 13:31:59;;;;;;;5.45;2.88;;;13.90;99.90;;;;;;5023575;28;20428;-64
2022/12/31 13:34:29;;;;;;;9.18;4.90;;;13.50;99.90;;;;;;5022932;28;20041;-64
2022/12/31 13:37:02;;;;;;;13.02;6.95;;;13.80;99.90;;;;;;5023455;28;20183;-63